createdAt,value
2022-10-13T00:02:04.541Z,99.78
2022-10-13T00:05:45.075Z,99.91
2022-10-13T00:09:21.385Z,99.91
2022-10-13T00:13:00.991Z,99.80
2022-10-13T00:16:38.324Z,99.78
2022-10-13T00:20:15.469Z,99.60
2022-10-13T00:23:54.159Z,99.29
2022-10-13T00:27:30.580Z,98.95
2022-10-13T00:31:15.515Z,98.84
2022-10-13T00:34:51.730Z,99.08
2022-10-13T00:38:29.718Z,98.95
2022-10-13T00:42:10.650Z,99.07
2022-10-13T00:45:50.227Z,98.80
2022-10-13T00:49:26.393Z,99.30
2022-10-13T00:53:06.135Z,99.68
2022-10-13T00:56:53.957Z,99.71
2022-10-13T01:00:31.109Z,99.65
2022-10-13T01:04:07.756Z,99.86
2022-10-13T01:07:49.406Z,99.98
2022-10-13T01:11:32.549Z,100.00
2022-10-13T01:15:49.000Z,100.00
2022-10-13T01:19:46.576Z,100.00
2022-10-13T01:23:34.869Z,100.00
2022-10-13T01:27:50.574Z,100.00
2022-10-13T01:32:00.627Z,100.00
2022-10-13T01:36:20.127Z,100.00
2022-10-13T01:40:24.005Z,100.00
2022-10-13T01:44:38.082Z,100.00
2022-10-13T01:48:20.500Z,100.00
2022-10-13T01:52:04.880Z,100.00
2022-10-13T01:56:02.390Z,100.00
2022-10-13T01:59:41.824Z,100.00
2022-10-13T02:03:34.738Z,100.00
2022-10-13T02:07:42.491Z,100.00
2022-10-13T02:11:22.313Z,100.00
2022-10-13T02:15:05.345Z,100.00
2022-10-13T02:18:45.168Z,100.00
2022-10-13T02:22:30.124Z,100.00
2022-10-13T02:26:06.821Z,100.00
2022-10-13T02:29:51.259Z,100.00
2022-10-13T02:33:29.164Z,100.00
2022-10-13T02:37:08.286Z,100.00
2022-10-13T02:40:45.586Z,100.00
2022-10-13T02:44:25.150Z,100.00
2022-10-13T02:48:01.550Z,100.00
2022-10-13T02:51:43.448Z,100.00
2022-10-13T02:55:30.627Z,100.00
2022-10-13T02:59:08.349Z,100.00
2022-10-13T03:02:54.479Z,100.00
2022-10-13T03:06:32.116Z,100.00
2022-10-13T03:10:31.261Z,100.00
2022-10-13T03:14:19.591Z,100.00
2022-10-13T03:18:16.646Z,100.00
2022-10-13T03:21:54.171Z,100.00
2022-10-13T03:25:36.415Z,100.00
2022-10-13T03:29:18.472Z,100.00
2022-10-13T03:32:54.625Z,100.00
2022-10-13T03:36:51.085Z,100.00
2022-10-13T03:40:29.497Z,100.00
2022-10-13T03:44:13.439Z,100.00
2022-10-13T03:47:50.940Z,100.00
2022-10-13T03:51:46.070Z,100.00
2022-10-13T03:55:26.210Z,100.00
2022-10-13T03:59:05.298Z,100.00
2022-10-13T04:02:43.031Z,100.00
2022-10-13T04:06:19.878Z,100.00
2022-10-13T04:10:11.606Z,100.00
2022-10-13T04:13:50.136Z,100.00
2022-10-13T04:17:35.805Z,100.00
2022-10-13T04:21:16.546Z,100.00
2022-10-13T04:24:59.484Z,100.00
2022-10-13T04:28:47.735Z,100.00
2022-10-13T04:32:24.270Z,100.00
2022-10-13T04:36:08.135Z,100.00
2022-10-13T04:39:44.332Z,100.00
2022-10-13T04:43:22.235Z,100.00
2022-10-13T04:47:01.716Z,100.00
2022-10-13T04:50:37.829Z,100.00
2022-10-13T04:54:15.523Z,100.00
2022-10-13T04:57:52.928Z,100.00
2022-10-13T05:01:31.025Z,100.00
2022-10-13T05:05:09.616Z,100.00
2022-10-13T05:08:48.515Z,100.00
2022-10-13T05:12:25.690Z,100.00
2022-10-13T05:16:08.620Z,100.00
2022-10-13T05:19:45.578Z,100.00
2022-10-13T05:23:22.298Z,100.00
2022-10-13T05:26:59.952Z,100.00
2022-10-13T05:30:37.646Z,100.00
2022-10-13T05:34:15.488Z,100.00
2022-10-13T05:37:53.158Z,100.00
2022-10-13T05:41:31.570Z,100.00
2022-10-13T05:45:10.915Z,100.00
2022-10-13T05:48:46.895Z,100.00
2022-10-13T05:52:25.650Z,100.00
2022-10-13T05:56:08.984Z,100.00
2022-10-13T05:59:51.178Z,100.00
2022-10-13T06:03:48.083Z,100.00
2022-10-13T06:07:05.354Z,100.00
2022-10-13T06:10:43.842Z,100.00
2022-10-13T06:14:21.170Z,100.00
2022-10-13T06:17:58.037Z,100.00
2022-10-13T06:21:35.780Z,100.00
2022-10-13T06:25:13.170Z,100.00
2022-10-13T06:28:54.462Z,100.00
2022-10-13T06:32:34.131Z,99.95
2022-10-13T06:36:11.984Z,99.38
2022-10-13T06:39:49.205Z,98.49
2022-10-13T06:43:34.362Z,97.67
2022-10-13T06:47:16.394Z,97.71
2022-10-13T06:50:54.235Z,97.21
2022-10-13T06:54:34.714Z,96.47
2022-10-13T06:58:11.934Z,96.17
2022-10-13T07:01:52.013Z,94.87
2022-10-13T07:05:28.418Z,93.14
2022-10-13T07:09:07.836Z,90.64
2022-10-13T07:12:43.866Z,90.03
2022-10-13T07:16:21.940Z,88.66
2022-10-13T07:20:01.315Z,86.61
2022-10-13T07:23:40.521Z,83.72
2022-10-13T07:27:17.878Z,83.44
2022-10-13T07:30:55.156Z,82.68
2022-10-13T07:34:33.288Z,81.57
2022-10-13T07:38:11.813Z,80.13
2022-10-13T07:41:51.045Z,77.93
2022-10-13T07:45:27.870Z,76.20
2022-10-13T07:49:05.485Z,74.21
2022-10-13T07:52:43.340Z,73.25
2022-10-13T07:56:20.955Z,71.53
2022-10-13T07:59:59.047Z,71.12
2022-10-13T08:07:17.057Z,67.01
2022-10-13T08:14:34.775Z,64.55
2022-10-13T08:18:14.528Z,64.67
2022-10-13T08:21:59.156Z,62.94
2022-10-13T08:25:41.012Z,62.68
2022-10-13T08:29:25.240Z,61.22
2022-10-13T08:33:01.433Z,60.49
2022-10-13T08:36:40.057Z,59.21
2022-10-13T08:40:21.090Z,58.03
2022-10-13T08:48:23.430Z,54.67
2022-10-13T08:52:05.705Z,53.93
2022-10-13T08:55:47.504Z,53.70
2022-10-13T08:59:24.834Z,50.81
2022-10-13T09:03:20.166Z,50.49
2022-10-13T09:07:05.448Z,49.91
2022-10-13T09:10:51.227Z,49.86
2022-10-13T09:14:33.582Z,50.46
2022-10-13T09:18:14.176Z,48.78
2022-10-13T09:21:54.369Z,47.35
2022-10-13T09:25:42.750Z,48.02
2022-10-13T09:29:25.059Z,47.72
2022-10-13T09:33:13.706Z,46.88
2022-10-13T09:36:57.267Z,46.50
2022-10-13T09:40:34.470Z,45.21
2022-10-13T09:44:32.473Z,44.00
2022-10-13T09:48:19.452Z,42.94
2022-10-13T09:52:05.010Z,41.39
2022-10-13T09:55:41.075Z,42.03
2022-10-13T09:59:35.981Z,41.35
2022-10-13T10:03:32.912Z,41.26
2022-10-13T10:07:22.005Z,41.54
2022-10-13T10:11:02.777Z,40.59
2022-10-13T10:14:39.380Z,39.96
2022-10-13T10:18:48.773Z,40.67
2022-10-13T10:22:33.877Z,38.81
2022-10-13T10:26:34.474Z,39.15
2022-10-13T10:30:17.275Z,37.30
2022-10-13T10:34:15.387Z,37.35
2022-10-13T10:38:04.436Z,36.98
2022-10-13T10:42:41.885Z,37.03
2022-10-13T10:46:22.805Z,38.96
2022-10-13T10:50:06.363Z,39.50
2022-10-13T10:54:21.724Z,37.87
2022-10-13T10:58:09.956Z,37.76
2022-10-13T11:02:07.568Z,37.89
2022-10-13T11:06:26.475Z,38.54
2022-10-13T11:10:17.888Z,37.70
2022-10-13T11:14:05.735Z,37.48
2022-10-13T11:17:42.516Z,36.73
2022-10-13T11:21:21.991Z,36.81
2022-10-13T11:25:01.244Z,35.83
2022-10-13T11:28:40.367Z,36.51
2022-10-13T11:32:26.950Z,37.11
2022-10-13T11:36:33.053Z,37.77
2022-10-13T11:40:29.246Z,37.29
2022-10-13T11:44:46.274Z,37.30
2022-10-13T11:48:28.719Z,37.54
2022-10-13T11:52:21.427Z,37.59
2022-10-13T11:56:18.536Z,37.07
2022-10-13T11:59:57.459Z,36.55
2022-10-13T12:03:36.676Z,35.12
2022-10-13T12:07:16.617Z,36.54
2022-10-13T12:10:57.579Z,36.46
2022-10-13T12:14:43.409Z,36.32
2022-10-13T12:18:25.389Z,36.34
2022-10-13T12:22:02.389Z,36.44
2022-10-13T12:25:39.264Z,37.49
2022-10-13T12:29:19.891Z,37.93
2022-10-13T12:32:59.274Z,37.82
2022-10-13T12:36:40.870Z,37.30
2022-10-13T12:40:19.403Z,37.38
2022-10-13T12:43:56.301Z,37.33
2022-10-13T12:47:48.547Z,37.23
2022-10-13T12:51:28.579Z,36.88
2022-10-13T12:55:23.535Z,36.65
2022-10-13T12:58:43.796Z,34.86
2022-10-13T13:02:33.170Z,35.54
2022-10-13T13:06:15.468Z,36.77
2022-10-13T13:10:04.494Z,37.08
2022-10-13T13:13:40.570Z,36.21
2022-10-13T13:17:38.448Z,35.15
2022-10-13T13:21:20.074Z,33.01
2022-10-13T13:24:57.423Z,33.79
2022-10-13T13:28:34.086Z,33.46
2022-10-13T13:32:19.991Z,32.72
2022-10-13T13:35:56.689Z,32.87
2022-10-13T13:39:34.582Z,34.59
2022-10-13T13:43:12.982Z,33.91
2022-10-13T13:46:49.374Z,34.87
2022-10-13T13:50:33.404Z,35.20
2022-10-13T13:54:09.707Z,35.59
2022-10-13T13:57:47.222Z,35.14
2022-10-13T14:01:25.949Z,36.30
2022-10-13T14:05:02.793Z,37.35
2022-10-13T14:08:42.936Z,37.71
2022-10-13T14:12:19.791Z,36.21
2022-10-13T14:16:00.030Z,36.60
2022-10-13T14:19:36.702Z,39.63
2022-10-13T14:23:14.441Z,42.50
2022-10-13T14:26:51.982Z,45.58
2022-10-13T14:30:29.285Z,46.96
2022-10-13T14:34:08.303Z,48.52
2022-10-13T14:37:45.266Z,48.94
2022-10-13T14:41:23.414Z,49.35
2022-10-13T14:45:00.410Z,49.71
2022-10-13T14:48:38.570Z,50.38
2022-10-13T14:52:15.187Z,51.67
2022-10-13T14:55:54.524Z,52.17
2022-10-13T14:59:34.275Z,52.62
2022-10-13T15:03:11.740Z,52.99
2022-10-13T15:06:49.376Z,53.28
2022-10-13T15:10:27.184Z,53.67
2022-10-13T15:14:04.904Z,54.00
2022-10-13T15:17:42.494Z,54.65
2022-10-13T15:21:20.262Z,55.15
2022-10-13T15:24:57.692Z,55.68
2022-10-13T15:28:38.417Z,56.04
2022-10-13T15:32:18.620Z,56.83
2022-10-13T15:35:55.605Z,57.88
2022-10-13T15:39:34.181Z,59.00
2022-10-13T15:43:10.777Z,62.21
2022-10-13T15:47:06.707Z,63.90
2022-10-13T15:50:45.403Z,65.22
2022-10-13T15:54:22.696Z,65.78
2022-10-13T15:57:59.646Z,66.76
2022-10-13T16:01:38.397Z,67.87
2022-10-13T16:05:16.041Z,68.89
2022-10-13T16:08:53.780Z,69.54
2022-10-13T16:12:31.294Z,70.22
2022-10-13T16:16:09.494Z,70.64
2022-10-13T16:19:45.658Z,71.22
2022-10-13T16:23:24.765Z,71.81
2022-10-13T16:27:02.105Z,72.21
2022-10-13T16:30:38.895Z,72.59
2022-10-13T16:34:16.334Z,73.57
2022-10-13T16:37:54.070Z,74.10
2022-10-13T16:41:31.782Z,74.85
2022-10-13T16:45:10.930Z,75.88
2022-10-13T16:48:48.699Z,76.72
2022-10-13T16:52:24.988Z,77.08
2022-10-13T16:56:05.114Z,77.44
2022-10-13T16:59:41.419Z,77.76
2022-10-13T17:03:19.121Z,78.17
2022-10-13T17:06:57.028Z,78.95
2022-10-13T17:10:35.034Z,79.81
2022-10-13T17:14:12.346Z,80.29
2022-10-13T17:17:50.795Z,80.35
2022-10-13T17:21:27.647Z,80.13
2022-10-13T17:25:06.680Z,80.07
2022-10-13T17:28:43.410Z,79.92
2022-10-13T17:32:37.825Z,79.38
2022-10-13T17:36:26.097Z,79.01
2022-10-13T17:40:03.124Z,78.84
2022-10-13T17:43:46.602Z,78.60
2022-10-13T17:47:23.028Z,78.77
2022-10-13T17:51:09.296Z,79.03
2022-10-13T17:54:45.683Z,79.52
2022-10-13T17:58:22.846Z,79.90
2022-10-13T18:02:00.699Z,79.93
2022-10-13T18:05:42.367Z,79.32
2022-10-13T18:09:24.428Z,79.36
2022-10-13T18:13:00.440Z,79.01
2022-10-13T18:16:39.138Z,78.78
2022-10-13T18:20:15.939Z,78.92
2022-10-13T18:23:59.579Z,78.95
2022-10-13T18:27:36.781Z,79.17
2022-10-13T18:31:27.698Z,79.10
2022-10-13T18:35:04.225Z,78.88
2022-10-13T18:38:41.779Z,79.40
2022-10-13T18:42:19.479Z,79.66
2022-10-13T18:46:14.678Z,80.10
2022-10-13T18:49:50.855Z,80.38
2022-10-13T18:53:29.174Z,80.53
2022-10-13T18:57:06.058Z,80.79
2022-10-13T19:00:43.830Z,81.13
2022-10-13T19:04:23.400Z,82.10
2022-10-13T19:08:00.744Z,82.73
2022-10-13T19:11:38.062Z,83.23
2022-10-13T19:15:15.403Z,83.43
2022-10-13T19:18:53.440Z,83.17
2022-10-13T19:22:31.312Z,83.08
2022-10-13T19:26:14.651Z,83.01
2022-10-13T19:29:55.060Z,82.98
2022-10-13T19:33:31.832Z,83.35
2022-10-13T19:37:09.646Z,82.98
2022-10-13T19:40:50.015Z,82.90
2022-10-13T19:44:27.997Z,82.60
2022-10-13T19:48:05.374Z,82.55
2022-10-13T19:51:43.438Z,82.27
2022-10-13T19:55:21.197Z,82.27
2022-10-13T19:59:00.105Z,82.31
2022-10-13T20:02:36.287Z,81.86
2022-10-13T20:06:15.532Z,82.03
2022-10-13T20:09:51.680Z,82.03
2022-10-13T20:13:30.316Z,82.38
2022-10-13T20:17:07.214Z,82.36
2022-10-13T20:20:45.812Z,82.19
2022-10-13T20:24:24.653Z,82.31
2022-10-13T20:28:00.602Z,82.61
2022-10-13T20:31:38.238Z,83.41
2022-10-13T20:35:16.125Z,83.28
2022-10-13T20:38:54.968Z,84.12
2022-10-13T20:42:32.504Z,84.94
2022-10-13T20:46:10.675Z,86.06
2022-10-13T20:49:47.973Z,86.37
2022-10-13T20:53:25.358Z,87.40
2022-10-13T20:57:03.270Z,88.09
2022-10-13T21:00:43.985Z,88.32
2022-10-13T21:04:20.126Z,88.91
2022-10-13T21:07:57.924Z,89.25
2022-10-13T21:11:36.438Z,89.04
2022-10-13T21:15:13.009Z,89.40
2022-10-13T21:18:52.054Z,89.47
2022-10-13T21:22:30.669Z,89.74
2022-10-13T21:26:09.084Z,90.28
2022-10-13T21:29:46.792Z,90.60
2022-10-13T21:33:23.775Z,90.78
2022-10-13T21:37:01.593Z,91.33
2022-10-13T21:40:38.775Z,92.28
2022-10-13T21:44:16.592Z,92.29
2022-10-13T21:47:55.000Z,92.49
2022-10-13T21:51:37.808Z,92.29
2022-10-13T21:55:17.065Z,92.67
2022-10-13T21:58:56.610Z,92.56
2022-10-13T22:02:33.391Z,92.33
2022-10-13T22:06:18.525Z,92.11
2022-10-13T22:09:56.375Z,92.16
2022-10-13T22:13:33.664Z,92.30
2022-10-13T22:17:10.655Z,92.33
2022-10-13T22:20:48.460Z,92.34
2022-10-13T22:24:26.365Z,92.41
2022-10-13T22:28:03.965Z,92.64
2022-10-13T22:31:43.514Z,92.56
2022-10-13T22:35:19.989Z,92.71
2022-10-13T22:39:02.966Z,93.10
2022-10-13T22:42:39.285Z,93.41
2022-10-13T22:46:19.813Z,93.73
2022-10-13T22:49:56.125Z,93.59
2022-10-13T22:53:35.055Z,93.66
2022-10-13T22:57:12.898Z,93.38
2022-10-13T23:00:50.373Z,93.65
2022-10-13T23:04:28.470Z,94.26
2022-10-13T23:08:06.278Z,94.73
2022-10-13T23:11:44.606Z,94.80
2022-10-13T23:15:21.274Z,94.87
2022-10-13T23:18:58.886Z,94.91
2022-10-13T23:22:37.194Z,95.23
2022-10-13T23:26:18.082Z,95.04
2022-10-13T23:29:57.615Z,95.22
2022-10-13T23:33:35.319Z,95.03
2022-10-13T23:37:12.834Z,95.43
2022-10-13T23:40:50.945Z,95.74
2022-10-13T23:44:30.376Z,95.69
2022-10-13T23:48:07.062Z,95.61
2022-10-13T23:51:49.582Z,95.87
2022-10-13T23:55:39.259Z,95.93
2022-10-13T23:59:15.434Z,96.11
